createdAt,value
2023-04-16T00:02:45.849Z,38.10
2023-04-16T00:07:47.106Z,48.10
2023-04-16T00:12:48.025Z,43.20
2023-04-16T00:17:49.089Z,35.20
2023-04-16T00:22:50.563Z,36.20
2023-04-16T00:27:51.576Z,37.30
2023-04-16T00:32:52.595Z,35.00
2023-04-16T00:37:53.843Z,27.50
2023-04-16T00:42:55.057Z,27.00
2023-04-16T00:47:59.293Z,20.70
2023-04-16T00:53:01.660Z,20.80
2023-04-16T00:58:03.024Z,39.60
2023-04-16T01:03:04.365Z,42.10
2023-04-16T01:08:05.513Z,29.50
2023-04-16T01:13:06.443Z,24.00
2023-04-16T01:18:21.582Z,15.60
2023-04-16T01:23:22.694Z,13.20
2023-04-16T01:28:23.792Z,17.10
2023-04-16T01:33:24.782Z,17.00
2023-04-16T01:38:26.432Z,17.50
2023-04-16T01:43:27.467Z,18.50
2023-04-16T01:48:28.583Z,14.70
2023-04-16T01:53:29.729Z,14.90
2023-04-16T01:58:32.215Z,19.70
2023-04-16T02:03:33.522Z,14.10
2023-04-16T02:08:34.887Z,14.70
2023-04-16T02:13:36.066Z,14.50
2023-04-16T02:18:37.099Z,13.60
2023-04-16T02:23:40.698Z,18.40
2023-04-16T02:28:41.797Z,15.40
2023-04-16T02:33:44.781Z,16.30
2023-04-16T02:38:46.352Z,16.10
2023-04-16T02:43:47.653Z,10.20
2023-04-16T02:48:48.830Z,17.00
2023-04-16T02:53:49.853Z,16.30
2023-04-16T02:58:51.750Z,12.10
2023-04-16T03:03:52.850Z,14.00
2023-04-16T03:08:54.272Z,11.80
2023-04-16T03:13:56.029Z,14.30
2023-04-16T03:18:56.984Z,15.60
2023-04-16T03:23:57.961Z,15.40
2023-04-16T03:28:58.905Z,16.90
2023-04-16T03:34:01.953Z,14.10
2023-04-16T03:39:05.381Z,19.70
2023-04-16T03:44:06.578Z,15.40
2023-04-16T03:49:08.085Z,13.10
2023-04-16T03:54:09.472Z,12.70
2023-04-16T03:59:12.291Z,9.40
2023-04-16T04:04:13.507Z,27.80
2023-04-16T04:09:15.777Z,12.80
2023-04-16T04:14:16.908Z,12.40
2023-04-16T04:19:17.927Z,12.50
2023-04-16T04:24:19.151Z,13.10
2023-04-16T04:29:20.489Z,15.70
2023-04-16T04:34:21.793Z,16.80
2023-04-16T04:39:22.913Z,16.30
2023-04-16T04:44:24.267Z,14.30
2023-04-16T04:49:25.716Z,16.60
2023-04-16T04:54:30.778Z,17.60
2023-04-16T04:59:31.885Z,13.70
2023-04-16T05:04:33.884Z,14.80
2023-04-16T05:09:35.182Z,17.00
2023-04-16T05:14:36.170Z,11.80
2023-04-16T05:19:37.185Z,14.80
2023-04-16T05:24:38.153Z,16.50
2023-04-16T05:29:39.218Z,16.00
2023-04-16T05:34:40.160Z,15.70
2023-04-16T05:39:41.283Z,13.60
2023-04-16T05:44:42.318Z,15.30
2023-04-16T05:49:43.428Z,11.00
2023-04-16T05:54:44.676Z,12.40
2023-04-16T05:59:45.597Z,12.50
2023-04-16T06:04:46.641Z,10.90
2023-04-16T06:09:47.618Z,13.30
2023-04-16T06:14:48.591Z,12.80
2023-04-16T06:19:49.566Z,12.80
2023-04-16T06:24:50.590Z,12.40
2023-04-16T06:29:52.193Z,8.80
2023-04-16T06:34:53.263Z,9.60
2023-04-16T06:39:54.234Z,9.50
2023-04-16T06:44:55.217Z,11.00
2023-04-16T06:49:56.219Z,9.10
2023-04-16T06:54:57.871Z,8.10
2023-04-16T06:59:58.812Z,10.50
2023-04-16T07:04:59.892Z,12.30
2023-04-16T07:10:00.895Z,10.50
2023-04-16T07:15:02.366Z,9.40
2023-04-16T07:20:03.722Z,7.60
2023-04-16T07:25:05.038Z,6.70
2023-04-16T07:30:07.361Z,5.20
2023-04-16T07:35:08.577Z,4.90
2023-04-16T07:40:10.254Z,4.00
2023-04-16T07:45:11.725Z,4.20
2023-04-16T07:50:12.829Z,3.80
2023-04-16T07:55:13.928Z,3.10
2023-04-16T08:00:15.004Z,4.20
2023-04-16T08:05:16.090Z,4.40
2023-04-16T08:10:17.124Z,3.60
2023-04-16T08:15:18.224Z,3.40
2023-04-16T08:20:19.657Z,4.20
2023-04-16T08:25:22.915Z,3.90
2023-04-16T08:35:25.267Z,3.60
2023-04-16T08:40:28.197Z,2.50
2023-04-16T08:45:29.941Z,2.80
2023-04-16T08:50:32.760Z,3.40
2023-04-16T08:55:40.176Z,3.10
2023-04-16T09:00:42.585Z,3.00
2023-04-16T09:05:43.938Z,3.50
2023-04-16T09:10:45.448Z,3.90
2023-04-16T09:15:46.572Z,3.50
2023-04-16T09:20:51.371Z,2.70
2023-04-16T09:25:52.630Z,4.10
2023-04-16T09:31:07.608Z,4.60
2023-04-16T09:36:09.706Z,3.80
2023-04-16T09:41:10.897Z,5.00
2023-04-16T09:46:12.290Z,4.40
2023-04-16T09:51:13.321Z,4.80
2023-04-16T09:56:14.447Z,5.40
2023-04-16T10:01:17.694Z,3.60
2023-04-16T10:06:20.466Z,6.10
2023-04-16T10:11:21.721Z,4.90
2023-04-16T10:16:23.515Z,5.20
2023-04-16T10:21:32.885Z,5.10
2023-04-16T10:26:34.736Z,4.00
2023-04-16T10:31:38.040Z,6.00
2023-04-16T10:36:42.094Z,4.80
2023-04-16T10:41:43.048Z,4.60
2023-04-16T10:46:50.145Z,4.30
2023-04-16T10:51:57.988Z,5.00
2023-04-16T10:57:04.412Z,6.40
2023-04-16T11:02:09.007Z,4.20
2023-04-16T11:07:15.757Z,4.20
2023-04-16T11:12:22.531Z,4.90
2023-04-16T11:17:28.290Z,6.10
2023-04-16T11:22:29.686Z,4.30
2023-04-16T11:27:30.929Z,4.80
2023-04-16T11:32:36.666Z,3.10
2023-04-16T11:37:38.409Z,4.40
2023-04-16T11:42:41.321Z,4.50
2023-04-16T11:47:56.014Z,3.60
2023-04-16T11:53:03.939Z,3.30
2023-04-16T11:58:18.416Z,3.30
2023-04-16T12:03:37.669Z,3.20
2023-04-16T12:08:38.849Z,2.40
2023-04-16T12:13:40.307Z,2.50
2023-04-16T12:18:59.441Z,2.30
2023-04-16T12:24:00.427Z,2.20
2023-04-16T12:29:33.957Z,2.40
2023-04-16T12:34:50.420Z,2.70
2023-04-16T12:39:51.531Z,4.70
2023-04-16T12:44:52.514Z,4.40
2023-04-16T12:49:54.799Z,3.90
2023-04-16T12:54:55.918Z,4.80
2023-04-16T12:59:57.963Z,9.10
2023-04-16T13:04:59.265Z,4.00
2023-04-16T13:10:00.397Z,3.60
2023-04-16T13:15:01.446Z,4.00
2023-04-16T13:20:02.667Z,3.10
2023-04-16T13:25:04.821Z,4.20
2023-04-16T13:30:06.976Z,4.30
2023-04-16T13:35:09.998Z,4.70
2023-04-16T13:40:11.214Z,3.30
2023-04-16T13:45:12.399Z,3.20
2023-04-16T13:50:13.429Z,3.90
2023-04-16T13:55:17.317Z,4.10
2023-04-16T14:00:18.901Z,3.00
2023-04-16T14:05:19.956Z,4.20
2023-04-16T14:10:20.950Z,3.70
2023-04-16T14:15:21.895Z,4.50
2023-04-16T14:20:22.915Z,5.40
2023-04-16T14:25:24.191Z,4.10
2023-04-16T14:30:25.498Z,4.50
2023-04-16T14:35:26.561Z,4.20
2023-04-16T14:40:27.722Z,4.00
2023-04-16T14:45:30.222Z,4.00
2023-04-16T14:50:37.148Z,3.70
2023-04-16T14:55:38.467Z,3.00
2023-04-16T15:00:39.479Z,3.70
2023-04-16T15:05:40.802Z,4.60
2023-04-16T15:10:42.662Z,4.90
2023-04-16T15:15:43.734Z,6.30
2023-04-16T15:20:44.814Z,5.00
2023-04-16T15:25:45.752Z,4.30
2023-04-16T15:30:47.116Z,4.10
2023-04-16T15:35:50.662Z,4.20
2023-04-16T15:40:51.625Z,4.30
2023-04-16T15:45:52.656Z,4.60
2023-04-16T15:50:54.196Z,3.80
2023-04-16T15:55:55.209Z,5.30
2023-04-16T16:00:56.461Z,4.30
2023-04-16T16:05:59.353Z,5.20
2023-04-16T16:16:03.174Z,4.00
2023-04-16T16:21:04.300Z,5.50
2023-04-16T16:26:05.666Z,5.60
2023-04-16T16:31:06.736Z,5.50
2023-04-16T16:36:11.129Z,5.00
2023-04-16T16:41:12.779Z,6.10
2023-04-16T16:46:13.760Z,5.40
2023-04-16T16:51:18.119Z,9.10
2023-04-16T16:56:19.083Z,7.50
2023-04-16T17:01:20.130Z,6.70
2023-04-16T17:06:22.421Z,15.50
2023-04-16T17:11:26.251Z,13.70
2023-04-16T17:16:27.368Z,7.30
2023-04-16T17:21:32.086Z,7.60
2023-04-16T17:26:33.068Z,7.80
2023-04-16T17:31:35.167Z,8.10
2023-04-16T17:36:36.655Z,10.70
2023-04-16T17:41:37.650Z,16.50
2023-04-16T17:46:38.690Z,16.90
2023-04-16T17:51:40.356Z,18.50
2023-04-16T17:56:41.436Z,23.30
2023-04-16T18:01:43.716Z,17.30
2023-04-16T18:06:44.901Z,20.50
2023-04-16T18:11:45.927Z,44.70
2023-04-16T18:16:48.229Z,24.60
2023-04-16T18:21:49.198Z,20.30
2023-04-16T18:26:50.249Z,20.60
2023-04-16T18:31:51.458Z,20.50
2023-04-16T18:36:52.477Z,18.80
2023-04-16T18:41:53.464Z,15.90
2023-04-16T18:46:54.664Z,12.90
2023-04-16T18:51:55.857Z,13.60
2023-04-16T18:56:59.067Z,14.10
2023-04-16T19:02:01.496Z,13.50
2023-04-16T19:07:02.924Z,14.70
2023-04-16T19:12:04.011Z,15.50
2023-04-16T19:17:05.063Z,16.10
2023-04-16T19:22:06.138Z,13.70
2023-04-16T19:27:07.126Z,13.10
2023-04-16T19:32:08.249Z,14.70
2023-04-16T19:37:09.310Z,14.10
2023-04-16T19:42:10.285Z,12.20
2023-04-16T19:47:11.266Z,12.10
2023-04-16T19:52:12.352Z,10.30
2023-04-16T19:57:13.470Z,8.60
2023-04-16T20:02:14.575Z,10.30
2023-04-16T20:07:15.612Z,11.40
2023-04-16T20:12:17.802Z,14.60
2023-04-16T20:17:19.126Z,13.30
2023-04-16T20:22:20.382Z,13.40
2023-04-16T20:27:21.401Z,16.00
2023-04-16T20:32:22.484Z,16.90
2023-04-16T20:37:23.587Z,15.30
2023-04-16T20:42:25.471Z,18.20
2023-04-16T20:47:26.591Z,17.90
2023-04-16T20:52:27.559Z,17.60
2023-04-16T20:57:29.102Z,16.40
2023-04-16T21:02:30.658Z,15.70
2023-04-16T21:07:32.416Z,23.50
2023-04-16T21:12:35.204Z,18.90
2023-04-16T21:17:39.382Z,16.60
2023-04-16T21:22:40.588Z,16.10
2023-04-16T21:27:41.553Z,20.70
2023-04-16T21:32:43.046Z,21.40
2023-04-16T21:37:44.019Z,20.40
2023-04-16T21:42:45.947Z,16.60
2023-04-16T21:47:47.767Z,18.90
2023-04-16T21:52:54.090Z,18.50
2023-04-16T21:57:55.085Z,14.20
2023-04-16T22:02:59.334Z,16.20
2023-04-16T22:08:02.609Z,14.20
2023-04-16T22:13:11.928Z,11.70
2023-04-16T22:18:13.423Z,12.00
2023-04-16T22:23:14.348Z,14.80
2023-04-16T22:28:15.492Z,15.80
2023-04-16T22:33:16.546Z,13.30
2023-04-16T22:38:17.549Z,13.50
2023-04-16T22:43:18.505Z,14.40
2023-04-16T22:48:19.607Z,15.90
2023-04-16T22:53:21.147Z,17.60
2023-04-16T22:58:22.293Z,16.70
2023-04-16T23:03:23.356Z,16.30
2023-04-16T23:08:24.621Z,17.10
2023-04-16T23:13:28.292Z,13.90
2023-04-16T23:18:29.300Z,10.30
2023-04-16T23:23:30.494Z,9.90
2023-04-16T23:28:31.571Z,13.30
2023-04-16T23:33:33.855Z,10.20
2023-04-16T23:38:34.826Z,11.00
2023-04-16T23:43:40.014Z,11.20
2023-04-16T23:48:43.192Z,9.70
2023-04-16T23:53:45.376Z,9.60
2023-04-16T23:58:46.379Z,9.40
